KPBG

Plattsburgh International Airport

Plattsburgh, New York, USA
METAR KPBG 151853Z AUTO 16015KT 10SM BKN060 OVC080 04/00 A2950 RMK AO2 RAB31E43 SLP993 P0000 T00440000
Observed Flight Rules
Feb-15 @ 18:53 UTC (12 minutes ago) Visual Flight Rules
Wind Visibility Clouds
160° at 15 knots 10 miles
  • Broken at 6,000' AGL
  • Overcast at 8,000' AGL
Temperatures Readings Precipitation
Current 4°C / 39°F
Dewpoint 0°C / 32°F
Humidity 75%
Altimeter 29.5" Hg
Pressure 999.3 hPa
Elevation 72
Current Rain 0.01
METAR KPBG 151853Z AUTO 16015KT 10SM BKN060 OVC080 04/00 A2950 RMK AO2 RAB31E43 SLP993 P0000 T00440000
Observed Flight Rules
Feb-15 @ 18:53 UTC
(12 minutes ago)
VFR
Wind Visibility
160° at 15 knots 10 miles
Clouds
  • Broken at 6,000' AGL
  • Overcast at 8,000' AGL
Temperature Dewpoint
4°C / 39°F 0°C / 32°F
Humidity Altimeter Pressure
75% 29.5" Hg 999.3 hPa
Current Rain
0.01